createdAt,value
2022-08-26T00:02:04.672Z,101644.03
2022-08-26T00:04:34.959Z,101639.63
2022-08-26T00:07:05.336Z,101637.81
2022-08-26T00:09:37.334Z,101637.53
2022-08-26T00:12:14.056Z,101630.88
2022-08-26T00:14:46.706Z,101627.91
2022-08-26T00:17:24.679Z,101626.78
2022-08-26T00:19:55.692Z,101629.34
2022-08-26T00:22:24.451Z,101628.22
2022-08-26T00:24:53.058Z,101637.75
2022-08-26T00:27:23.038Z,101629.34
2022-08-26T00:29:51.715Z,101634.19
2022-08-26T00:32:20.325Z,101637.00
2022-08-26T00:34:48.671Z,101642.72
2022-08-26T00:37:18.518Z,101635.47
2022-08-26T00:39:47.166Z,101638.72
2022-08-26T00:42:15.891Z,101637.44
2022-08-26T00:44:46.225Z,101629.03
2022-08-26T00:47:24.142Z,101635.88
2022-08-26T00:49:53.197Z,101635.84
2022-08-26T00:52:24.438Z,101635.56
2022-08-26T00:55:00.237Z,101630.44
2022-08-26T00:57:28.955Z,101630.00
2022-08-26T01:00:01.542Z,101626.44
2022-08-26T01:02:31.609Z,101634.81
2022-08-26T01:05:04.006Z,101634.38
2022-08-26T01:07:34.807Z,101631.13
2022-08-26T01:10:06.665Z,101631.53
2022-08-26T01:12:41.571Z,101631.78
2022-08-26T01:15:17.334Z,101627.25
2022-08-26T01:17:46.173Z,101627.97
2022-08-26T01:20:25.364Z,101629.69
2022-08-26T01:22:58.166Z,101625.84
2022-08-26T01:25:33.778Z,101625.56
2022-08-26T01:28:07.157Z,101623.97
2022-08-26T01:30:37.024Z,101628.41
2022-08-26T01:33:12.337Z,101623.28
2022-08-26T01:35:41.873Z,101623.00
2022-08-26T01:38:13.042Z,101623.97
2022-08-26T01:40:43.915Z,101619.44
2022-08-26T01:43:18.390Z,101614.03
2022-08-26T01:45:48.767Z,101616.47
2022-08-26T01:48:21.578Z,101628.50
2022-08-26T01:50:50.816Z,101609.06
2022-08-26T01:53:23.159Z,101611.63
2022-08-26T01:55:58.252Z,101611.94
2022-08-26T01:58:31.919Z,101617.75
2022-08-26T02:01:01.346Z,101611.09
2022-08-26T02:03:31.968Z,101606.00
2022-08-26T02:06:06.211Z,101610.56
2022-08-26T02:08:43.616Z,101610.88
2022-08-26T02:11:16.743Z,101612.72
2022-08-26T02:13:50.251Z,101621.25
2022-08-26T02:16:23.703Z,101611.44
2022-08-26T02:18:53.320Z,101606.03
2022-08-26T02:21:22.202Z,101606.34
2022-08-26T02:23:57.466Z,101610.75
2022-08-26T02:26:27.191Z,101608.31
2022-08-26T02:29:01.621Z,101605.78
2022-08-26T02:31:32.879Z,101610.31
2022-08-26T02:34:11.636Z,101612.28
2022-08-26T02:36:40.919Z,101615.38
2022-08-26T02:39:11.248Z,101619.38
2022-08-26T02:41:40.343Z,101621.66
2022-08-26T02:44:16.985Z,101617.63
2022-08-26T02:46:47.183Z,101614.81
2022-08-26T02:49:17.049Z,101617.06
2022-08-26T02:51:48.620Z,101616.06
2022-08-26T02:54:19.064Z,101619.16
2022-08-26T02:56:47.432Z,101626.44
2022-08-26T02:59:16.067Z,101625.25
2022-08-26T03:01:49.777Z,101626.41
2022-08-26T03:04:18.699Z,101625.38
2022-08-26T03:06:52.878Z,101616.13
2022-08-26T03:09:23.358Z,101613.84
2022-08-26T03:11:52.143Z,101619.09
2022-08-26T03:14:21.602Z,101608.97
2022-08-26T03:16:55.134Z,101601.28
2022-08-26T03:19:25.401Z,101603.28
2022-08-26T03:21:57.876Z,101600.97
2022-08-26T03:24:29.141Z,101603.69
2022-08-26T03:26:57.780Z,101600.97
2022-08-26T03:29:59.619Z,101593.28
2022-08-26T03:32:28.151Z,101595.28
2022-08-26T03:35:00.418Z,101597.84
2022-08-26T03:37:29.134Z,101589.88
2022-08-26T03:39:59.194Z,101592.59
2022-08-26T03:42:29.624Z,101585.91
2022-08-26T03:44:58.384Z,101589.63
2022-08-26T03:47:26.650Z,101584.53
2022-08-26T03:49:54.783Z,101574.84
2022-08-26T03:52:23.895Z,101581.72
2022-08-26T03:54:52.363Z,101572.75
2022-08-26T03:57:22.399Z,101583.41
2022-08-26T03:59:50.919Z,101571.34
2022-08-26T04:02:20.625Z,101579.44
2022-08-26T04:04:49.054Z,101569.50
2022-08-26T04:07:17.356Z,101573.88
2022-08-26T04:09:46.891Z,101568.63
2022-08-26T04:12:15.114Z,101570.66
2022-08-26T04:14:45.330Z,101566.94
2022-08-26T04:17:13.621Z,101560.13
2022-08-26T04:19:42.394Z,101565.81
2022-08-26T04:22:11.118Z,101559.00
2022-08-26T04:24:40.233Z,101578.22
2022-08-26T04:27:08.956Z,101569.56
2022-08-26T04:29:39.281Z,101570.00
2022-08-26T04:32:10.500Z,101572.72
2022-08-26T04:34:41.570Z,101561.91
2022-08-26T04:37:10.780Z,101558.50
2022-08-26T04:39:39.902Z,101559.94
2022-08-26T04:42:08.800Z,101559.59
2022-08-26T04:44:38.461Z,101559.31
2022-08-26T04:47:09.506Z,101562.72
2022-08-26T04:49:39.566Z,101566.53
2022-08-26T04:52:08.113Z,101561.53
2022-08-26T04:54:37.826Z,101566.34
2022-08-26T04:57:10.639Z,101567.75
2022-08-26T04:59:40.127Z,101559.19
2022-08-26T05:02:10.271Z,101548.91
2022-08-26T05:04:38.689Z,101554.88
2022-08-26T05:07:08.211Z,101553.72
2022-08-26T05:09:40.628Z,101561.84
2022-08-26T05:12:19.120Z,101559.56
2022-08-26T05:14:47.296Z,101563.97
2022-08-26T05:17:17.230Z,101563.34
2022-08-26T05:19:46.148Z,101559.63
2022-08-26T05:22:14.778Z,101555.63
2022-08-26T05:24:43.579Z,101561.13
2022-08-26T05:27:12.058Z,101548.16
2022-08-26T05:29:41.118Z,101555.66
2022-08-26T05:32:09.398Z,101553.81
2022-08-26T05:34:41.083Z,101548.94
2022-08-26T05:37:11.426Z,101548.94
2022-08-26T05:39:48.831Z,101551.19
2022-08-26T05:42:20.052Z,101562.41
2022-08-26T05:44:55.713Z,101546.84
2022-08-26T05:47:25.893Z,101567.88
2022-08-26T05:49:58.402Z,101568.25
2022-08-26T05:52:27.864Z,101567.09
2022-08-26T05:54:56.392Z,101570.38
2022-08-26T05:57:31.070Z,101571.75
2022-08-26T05:59:59.702Z,101565.16
2022-08-26T06:02:29.346Z,101575.22
2022-08-26T06:05:15.757Z,101568.81
2022-08-26T06:08:01.776Z,101566.78
2022-08-26T06:10:32.822Z,101573.75
2022-08-26T06:13:09.356Z,101568.81
2022-08-26T06:15:43.753Z,101565.63
2022-08-26T06:18:14.860Z,101569.75
2022-08-26T06:20:56.799Z,101573.44
2022-08-26T06:23:44.175Z,101574.16
2022-08-26T06:26:13.242Z,101565.88
2022-08-26T06:28:43.539Z,101570.44
2022-08-26T06:31:14.140Z,101570.59
2022-08-26T06:33:42.651Z,101573.81
2022-08-26T06:36:17.411Z,101566.59
2022-08-26T06:38:49.169Z,101569.28
2022-08-26T06:41:20.250Z,101564.72
2022-08-26T06:43:48.919Z,101568.59
2022-08-26T06:46:19.799Z,101559.06
2022-08-26T06:48:48.082Z,101562.78
2022-08-26T06:51:20.639Z,101570.91
2022-08-26T06:53:53.833Z,101556.28
2022-08-26T06:56:25.852Z,101562.53
2022-08-26T06:58:54.195Z,101564.25
2022-08-26T07:01:26.921Z,101564.69
2022-08-26T07:03:57.887Z,101575.59
2022-08-26T07:06:28.248Z,101565.09
2022-08-26T07:09:04.132Z,101578.03
2022-08-26T07:11:34.007Z,101576.69
2022-08-26T07:14:04.517Z,101586.59
2022-08-26T07:16:32.908Z,101575.75
2022-08-26T07:19:01.282Z,101578.84
2022-08-26T07:21:33.176Z,101574.28
2022-08-26T07:24:02.333Z,101572.59
2022-08-26T07:26:32.213Z,101586.66
2022-08-26T07:29:04.723Z,101577.53
2022-08-26T07:31:39.538Z,101581.84
2022-08-26T07:34:11.060Z,101577.63
2022-08-26T07:36:42.830Z,101577.06
2022-08-26T07:39:12.220Z,101580.84
2022-08-26T07:41:42.134Z,101581.00
2022-08-26T07:44:11.124Z,101576.59
2022-08-26T07:46:44.250Z,101579.69
2022-08-26T07:49:20.561Z,101589.19
2022-08-26T07:51:54.738Z,101586.16
2022-08-26T07:54:26.681Z,101587.91
2022-08-26T07:56:55.919Z,101583.69
2022-08-26T07:59:24.606Z,101589.25
2022-08-26T08:01:57.636Z,101590.81
2022-08-26T08:04:28.456Z,101584.84
2022-08-26T08:07:00.434Z,101587.91
2022-08-26T08:09:28.824Z,101586.22
2022-08-26T08:11:58.453Z,101578.75
2022-08-26T08:14:29.231Z,101582.84
2022-08-26T08:16:58.392Z,101577.94
2022-08-26T08:19:36.822Z,101583.41
2022-08-26T08:22:28.905Z,101584.25
2022-08-26T08:25:06.180Z,101586.81
2022-08-26T08:27:35.493Z,101571.03
2022-08-26T08:30:04.500Z,101573.41
2022-08-26T08:32:37.246Z,101584.16
2022-08-26T08:35:10.735Z,101579.28
2022-08-26T08:37:43.225Z,101583.00
2022-08-26T08:40:15.808Z,101580.28
2022-08-26T08:42:54.845Z,101581.28
2022-08-26T08:45:35.895Z,101582.63
2022-08-26T08:48:08.282Z,101588.34
2022-08-26T08:50:46.589Z,101582.19
2022-08-26T08:53:32.184Z,101583.84
2022-08-26T08:56:23.311Z,101580.53
2022-08-26T08:58:57.934Z,101579.94
2022-08-26T09:01:37.232Z,101588.50
2022-08-26T09:04:20.834Z,101582.75
2022-08-26T09:06:51.281Z,101587.28
2022-08-26T09:09:32.210Z,101572.72
2022-08-26T09:12:02.852Z,101583.19
2022-08-26T09:14:33.007Z,101582.75
2022-08-26T09:17:09.277Z,101569.34
2022-08-26T09:19:44.472Z,101570.28
2022-08-26T09:24:53.475Z,101579.34
2022-08-26T09:27:46.456Z,101568.72
2022-08-26T09:30:25.549Z,101571.09
2022-08-26T09:33:03.696Z,101572.69
2022-08-26T09:35:41.540Z,101568.25
2022-08-26T09:38:25.219Z,101565.88
2022-08-26T09:41:03.564Z,101569.50
2022-08-26T09:43:33.878Z,101567.97
2022-08-26T09:46:18.647Z,101560.34
2022-08-26T09:48:47.544Z,101558.59
2022-08-26T09:51:33.571Z,101559.91
2022-08-26T09:54:05.565Z,101559.06
2022-08-26T09:56:43.807Z,101562.38
2022-08-26T09:59:13.940Z,101563.59
2022-08-26T10:01:45.018Z,101561.56
2022-08-26T10:04:16.354Z,101552.97
2022-08-26T10:06:57.871Z,101551.94
2022-08-26T10:09:28.589Z,101555.81
2022-08-26T10:12:05.742Z,101560.50
2022-08-26T10:14:39.963Z,101557.16
2022-08-26T10:17:12.722Z,101554.81
2022-08-26T10:19:56.461Z,101550.81
2022-08-26T10:22:50.578Z,101554.19
2022-08-26T10:25:26.269Z,101559.44
2022-08-26T10:28:02.460Z,101557.31
2022-08-26T10:30:36.295Z,101557.09
2022-08-26T10:33:08.604Z,101552.34
2022-08-26T10:35:44.143Z,101552.97
2022-08-26T10:38:19.924Z,101552.75
2022-08-26T10:40:56.370Z,101547.50
2022-08-26T10:43:30.544Z,101553.03
2022-08-26T10:46:04.563Z,101560.72
2022-08-26T10:48:40.732Z,101549.38
2022-08-26T10:51:11.498Z,101554.44
2022-08-26T10:53:51.397Z,101545.13
2022-08-26T10:56:31.342Z,101541.56
2022-08-26T10:59:12.724Z,101542.47
2022-08-26T11:01:51.164Z,101537.38
2022-08-26T11:04:48.385Z,101544.19
2022-08-26T11:07:42.017Z,101543.38
2022-08-26T11:10:15.627Z,101539.19
2022-08-26T11:13:01.310Z,101547.44
2022-08-26T11:16:11.150Z,101541.56
2022-08-26T11:18:54.783Z,101541.44
2022-08-26T11:21:49.469Z,101542.03
2022-08-26T11:24:48.859Z,101547.31
2022-08-26T11:28:08.810Z,101548.47
2022-08-26T11:30:43.877Z,101543.03
2022-08-26T11:33:58.280Z,101557.22
2022-08-26T11:36:43.102Z,101542.00
2022-08-26T11:39:24.250Z,101546.88
2022-08-26T11:42:00.264Z,101546.09
2022-08-26T11:44:38.373Z,101542.69
2022-08-26T11:47:14.566Z,101550.91
2022-08-26T11:49:45.386Z,101552.81
2022-08-26T11:52:20.885Z,101549.63
2022-08-26T11:55:05.706Z,101556.91
2022-08-26T11:57:37.357Z,101550.50
2022-08-26T12:00:12.012Z,101554.69
2022-08-26T12:02:42.702Z,101548.56
2022-08-26T12:05:11.820Z,101550.50
2022-08-26T12:07:43.012Z,101554.88
2022-08-26T12:10:12.772Z,101544.03
2022-08-26T12:12:45.267Z,101542.53
2022-08-26T12:15:19.902Z,101542.47
2022-08-26T12:17:54.551Z,101538.28
2022-08-26T12:20:45.957Z,101529.38
2022-08-26T12:23:29.366Z,101541.63
2022-08-26T12:26:07.253Z,101545.00
2022-08-26T12:28:44.352Z,101538.19
2022-08-26T12:31:21.750Z,101547.41
2022-08-26T12:33:50.734Z,101543.31
2022-08-26T12:36:27.575Z,101537.75
2022-08-26T12:38:58.742Z,101543.91
2022-08-26T12:41:41.981Z,101529.44
2022-08-26T12:44:10.793Z,101533.19
2022-08-26T12:46:39.287Z,101533.44
2022-08-26T12:49:09.771Z,101532.88
2022-08-26T12:51:45.293Z,101535.03
2022-08-26T12:54:19.867Z,101526.41
2022-08-26T12:56:48.327Z,101527.22
2022-08-26T12:59:25.200Z,101533.13
2022-08-26T13:01:54.879Z,101535.28
2022-08-26T13:04:39.182Z,101535.63
2022-08-26T13:07:15.794Z,101532.09
2022-08-26T13:09:45.873Z,101540.53
2022-08-26T13:12:25.386Z,101530.63
2022-08-26T13:14:54.538Z,101532.94
2022-08-26T13:17:23.098Z,101535.22
2022-08-26T13:19:51.439Z,101529.09
2022-08-26T13:22:24.353Z,101528.16
2022-08-26T13:24:57.327Z,101534.88
2022-08-26T13:27:27.384Z,101527.28
2022-08-26T13:29:59.559Z,101532.75
2022-08-26T13:32:28.663Z,101529.84
2022-08-26T13:34:58.725Z,101523.94
2022-08-26T13:37:34.913Z,101522.91
2022-08-26T13:40:07.219Z,101526.06
2022-08-26T13:45:04.128Z,101519.69
2022-08-26T13:47:32.346Z,101523.03
2022-08-26T13:50:00.707Z,101526.78
2022-08-26T13:52:30.558Z,101522.63
2022-08-26T13:55:01.351Z,101523.09
2022-08-26T13:57:31.643Z,101521.50
2022-08-26T14:00:00.331Z,101517.34
2022-08-26T14:02:31.175Z,101521.59
2022-08-26T14:04:59.474Z,101524.13
2022-08-26T14:07:27.685Z,101520.47
2022-08-26T14:09:55.847Z,101516.34
2022-08-26T14:12:24.177Z,101520.22
2022-08-26T14:14:53.918Z,101531.31
2022-08-26T14:17:24.537Z,101522.84
2022-08-26T14:19:53.736Z,101516.28
2022-08-26T14:22:24.034Z,101523.66
2022-08-26T14:24:52.465Z,101514.63
2022-08-26T14:27:20.693Z,101516.16
2022-08-26T14:29:54.186Z,101515.09
2022-08-26T14:32:26.149Z,101517.56
2022-08-26T14:34:55.988Z,101511.31
2022-08-26T14:37:24.479Z,101513.88
2022-08-26T14:39:53.017Z,101506.84
2022-08-26T14:42:25.910Z,101504.16
2022-08-26T14:45:04.894Z,101510.00
2022-08-26T14:47:33.211Z,101503.06
2022-08-26T14:50:01.932Z,101507.81
2022-08-26T14:52:50.671Z,101505.34
2022-08-26T14:55:17.899Z,101507.75
2022-08-26T14:57:46.174Z,101511.47
2022-08-26T15:00:17.154Z,101511.22
2022-08-26T15:02:45.761Z,101519.28
2022-08-26T15:05:14.539Z,101512.47
2022-08-26T15:07:44.038Z,101512.41
2022-08-26T15:10:15.083Z,101506.88
2022-08-26T15:12:43.884Z,101505.91
2022-08-26T15:15:17.375Z,101513.91
2022-08-26T15:17:47.154Z,101502.16
2022-08-26T15:20:17.832Z,101500.19
2022-08-26T15:22:46.416Z,101516.56
2022-08-26T15:25:15.514Z,101504.03
2022-08-26T15:27:43.782Z,101499.69
2022-08-26T15:30:19.645Z,101503.13
2022-08-26T15:32:51.870Z,101503.38
2022-08-26T15:35:26.130Z,101509.63
2022-08-26T15:37:56.420Z,101507.25
2022-08-26T15:40:27.303Z,101507.53
2022-08-26T15:43:17.870Z,101504.88
2022-08-26T15:45:46.820Z,101526.25
2022-08-26T15:48:16.709Z,101526.50
2022-08-26T15:50:52.078Z,101528.44
2022-08-26T15:53:22.726Z,101517.25
2022-08-26T15:55:53.733Z,101512.00
2022-08-26T15:58:22.761Z,101509.59
2022-08-26T16:00:53.949Z,101506.22
2022-08-26T16:03:24.014Z,101509.72
2022-08-26T16:05:52.640Z,101506.09
2022-08-26T16:08:22.440Z,101506.50
2022-08-26T16:10:51.525Z,101500.66
2022-08-26T16:13:21.305Z,101503.84
2022-08-26T16:15:52.413Z,101503.28
2022-08-26T16:18:23.540Z,101497.06
2022-08-26T16:21:05.003Z,101497.06
2022-08-26T16:23:45.028Z,101509.38
2022-08-26T16:26:17.143Z,101499.22
2022-08-26T16:28:46.343Z,101503.41
2022-08-26T16:31:18.847Z,101509.16
2022-08-26T16:33:50.685Z,101507.25
2022-08-26T16:36:28.778Z,101514.19
2022-08-26T16:38:57.522Z,101511.38
2022-08-26T16:41:31.167Z,101509.53
2022-08-26T16:44:05.558Z,101502.22
2022-08-26T16:46:39.771Z,101516.16
2022-08-26T16:49:11.837Z,101512.06
2022-08-26T16:51:50.903Z,101503.19
2022-08-26T16:54:21.986Z,101514.22
2022-08-26T16:59:50.398Z,101520.38
2022-08-26T17:02:22.790Z,101518.31
2022-08-26T17:05:16.920Z,101509.69
2022-08-26T17:08:27.453Z,101510.72
2022-08-26T17:11:37.918Z,101513.59
2022-08-26T17:14:11.160Z,101507.47
2022-08-26T17:16:57.120Z,101505.66
2022-08-26T17:19:46.937Z,101504.56
2022-08-26T17:22:21.295Z,101509.19
2022-08-26T17:24:51.887Z,101499.94
2022-08-26T17:27:25.378Z,101505.00
2022-08-26T17:33:00.759Z,101502.97
2022-08-26T17:35:58.502Z,101498.28
2022-08-26T17:38:32.258Z,101482.63
2022-08-26T17:41:11.805Z,101494.81
2022-08-26T17:43:41.654Z,101488.28
2022-08-26T17:46:17.257Z,101477.63
2022-08-26T17:48:49.889Z,101488.88
2022-08-26T17:51:21.729Z,101489.47
2022-08-26T17:56:57.527Z,101475.22
2022-08-26T17:59:39.119Z,101467.00
2022-08-26T18:02:12.418Z,101478.38
2022-08-26T18:04:41.023Z,101475.16
2022-08-26T18:07:13.154Z,101478.38
2022-08-26T18:09:41.872Z,101473.69
2022-08-26T18:12:13.403Z,101471.47
2022-08-26T18:14:44.680Z,101474.47
2022-08-26T18:17:20.299Z,101482.69
2022-08-26T18:19:51.781Z,101484.38
2022-08-26T18:22:24.018Z,101491.56
2022-08-26T18:24:59.025Z,101496.47
2022-08-26T18:27:29.799Z,101486.59
2022-08-26T18:29:59.081Z,101489.78
2022-08-26T18:32:35.008Z,101490.81
2022-08-26T18:35:05.992Z,101492.72
2022-08-26T18:37:35.617Z,101486.81
2022-08-26T18:40:05.666Z,101494.38
2022-08-26T18:42:36.040Z,101480.66
2022-08-26T18:45:10.775Z,101490.88
2022-08-26T18:47:45.897Z,101486.22
2022-08-26T18:50:14.305Z,101484.31
2022-08-26T18:52:45.699Z,101494.06
2022-08-26T18:55:14.497Z,101493.22
2022-08-26T18:57:44.277Z,101482.13
2022-08-26T19:00:14.603Z,101489.28
2022-08-26T19:02:43.557Z,101476.41
2022-08-26T19:05:21.530Z,101483.84
2022-08-26T19:07:50.855Z,101485.94
2022-08-26T19:10:19.990Z,101475.88
2022-08-26T19:12:54.474Z,101470.16
2022-08-26T19:15:24.217Z,101479.75
2022-08-26T19:17:53.692Z,101477.94
2022-08-26T19:20:23.047Z,101487.94
2022-08-26T19:22:57.459Z,101488.38
2022-08-26T19:25:58.172Z,101486.44
2022-08-26T19:28:28.683Z,101486.53
2022-08-26T19:30:59.065Z,101489.56
2022-08-26T19:33:28.893Z,101494.88
2022-08-26T19:35:59.328Z,101494.91
2022-08-26T19:38:28.872Z,101496.78
2022-08-26T19:40:59.061Z,101507.31
2022-08-26T19:43:29.825Z,101507.16
2022-08-26T19:46:01.191Z,101506.97
2022-08-26T19:48:29.830Z,101520.38
2022-08-26T19:50:58.426Z,101512.41
2022-08-26T19:53:27.004Z,101523.59
2022-08-26T19:56:03.961Z,101513.22
2022-08-26T19:58:34.662Z,101514.56
2022-08-26T20:01:04.388Z,101517.59
2022-08-26T20:03:33.430Z,101515.06
2022-08-26T20:06:05.191Z,101524.63
2022-08-26T20:08:39.417Z,101517.13
2022-08-26T20:11:19.479Z,101519.13
2022-08-26T20:13:51.673Z,101525.25
2022-08-26T20:16:22.694Z,101533.41
2022-08-26T20:19:09.517Z,101522.56
2022-08-26T20:21:43.855Z,101527.16
2022-08-26T20:24:15.144Z,101528.19
2022-08-26T20:26:46.259Z,101541.94
2022-08-26T20:29:18.638Z,101533.78
2022-08-26T20:31:51.280Z,101533.59
2022-08-26T20:34:27.864Z,101532.06
2022-08-26T20:36:57.268Z,101532.06
2022-08-26T20:39:30.142Z,101536.66
2022-08-26T20:41:59.585Z,101539.56
2022-08-26T20:44:29.956Z,101540.22
2022-08-26T20:46:59.317Z,101530.72
2022-08-26T20:49:29.254Z,101531.38
2022-08-26T20:51:58.408Z,101527.16
2022-08-26T20:54:28.519Z,101524.28
2022-08-26T20:57:00.472Z,101537.19
2022-08-26T20:59:33.363Z,101530.03
2022-08-26T21:02:23.467Z,101535.94
2022-08-26T21:04:52.019Z,101532.72
2022-08-26T21:07:29.595Z,101539.47
2022-08-26T21:10:02.934Z,101537.28
2022-08-26T21:12:35.672Z,101532.69
2022-08-26T21:15:11.391Z,101530.81
2022-08-26T21:17:43.861Z,101533.34
2022-08-26T21:20:12.388Z,101526.53
2022-08-26T21:22:46.416Z,101525.66
2022-08-26T21:25:24.086Z,101530.25
2022-08-26T21:27:52.205Z,101527.19
2022-08-26T21:30:23.882Z,101529.72
2022-08-26T21:32:53.510Z,101530.88
2022-08-26T21:35:21.684Z,101525.28
2022-08-26T21:37:56.378Z,101531.72
2022-08-26T21:40:25.242Z,101533.56
2022-08-26T21:42:55.967Z,101533.19
2022-08-26T21:45:33.096Z,101539.50
2022-08-26T21:48:05.501Z,101529.25
2022-08-26T21:50:34.701Z,101528.56
2022-08-26T21:53:09.703Z,101531.94
2022-08-26T21:55:40.225Z,101531.41
2022-08-26T21:58:25.669Z,101524.78
2022-08-26T22:00:57.689Z,101530.69
2022-08-26T22:03:28.983Z,101531.69
2022-08-26T22:06:01.699Z,101536.75
2022-08-26T22:08:37.827Z,101528.94
2022-08-26T22:11:10.850Z,101532.13
2022-08-26T22:13:45.862Z,101533.63
2022-08-26T22:16:30.860Z,101535.78
2022-08-26T22:19:05.809Z,101531.19
2022-08-26T22:21:58.611Z,101536.91
2022-08-26T22:24:44.023Z,101532.63
2022-08-26T22:27:23.371Z,101532.44
2022-08-26T22:30:11.739Z,101541.56
2022-08-26T22:33:20.418Z,101531.38
2022-08-26T22:35:56.900Z,101536.81
2022-08-26T22:42:28.617Z,101532.28
2022-08-26T22:45:31.502Z,101531.44
2022-08-26T22:48:11.184Z,101527.19
2022-08-26T22:50:43.436Z,101528.66
2022-08-26T22:53:35.859Z,101533.88
2022-08-26T22:56:21.998Z,101534.47
2022-08-26T22:59:07.996Z,101528.38
2022-08-26T23:01:50.530Z,101522.59
2022-08-26T23:04:57.545Z,101525.47
2022-08-26T23:07:34.748Z,101532.31
2022-08-26T23:10:15.572Z,101532.31
2022-08-26T23:12:51.557Z,101532.31
2022-08-26T23:15:24.144Z,101526.91
2022-08-26T23:18:10.562Z,101532.56
2022-08-26T23:20:44.655Z,101542.66
2022-08-26T23:23:37.171Z,101541.81
2022-08-26T23:26:08.623Z,101544.22
2022-08-26T23:28:39.812Z,101538.44
2022-08-26T23:31:11.619Z,101547.56
2022-08-26T23:34:00.264Z,101545.44
2022-08-26T23:36:35.080Z,101542.69
2022-08-26T23:39:10.550Z,101544.69
2022-08-26T23:41:39.024Z,101542.97
2022-08-26T23:44:09.819Z,101538.19
2022-08-26T23:46:39.214Z,101536.97
2022-08-26T23:49:10.206Z,101537.41
2022-08-26T23:52:02.927Z,101542.88
2022-08-26T23:54:34.172Z,101540.09
2022-08-26T23:57:02.631Z,101544.50
2022-08-26T23:59:31.226Z,101539.88
